sensor_id;sensor_type;location;lat;lon;timestamp;P1;durP1;ratioP1;P2;durP2;ratioP2
45842;SDS011;31563;51.744;8.252;2023-04-25T00:00:25;4.50;;;2.30;;
45842;SDS011;31563;51.744;8.252;2023-04-25T00:02:53;4.80;;;2.17;;
45842;SDS011;31563;51.744;8.252;2023-04-25T00:05:23;5.18;;;2.35;;
45842;SDS011;31563;51.744;8.252;2023-04-25T00:07:52;3.05;;;1.88;;
45842;SDS011;31563;51.744;8.252;2023-04-25T00:10:20;2.22;;;1.60;;
45842;SDS011;31563;51.744;8.252;2023-04-25T00:12:50;3.63;;;2.00;;
45842;SDS011;31563;51.744;8.252;2023-04-25T00:15:18;5.20;;;2.15;;
45842;SDS011;31563;51.744;8.252;2023-04-25T00:17:46;3.80;;;1.92;;
45842;SDS011;31563;51.744;8.252;2023-04-25T00:20:15;3.35;;;1.98;;
45842;SDS011;31563;51.744;8.252;2023-04-25T00:22:43;4.97;;;2.45;;
45842;SDS011;31563;51.744;8.252;2023-04-25T00:25:11;3.75;;;2.00;;
45842;SDS011;31563;51.744;8.252;2023-04-25T00:27:39;3.40;;;1.67;;
45842;SDS011;31563;51.744;8.252;2023-04-25T00:30:10;3.78;;;2.00;;
45842;SDS011;31563;51.744;8.252;2023-04-25T00:32:39;2.47;;;1.70;;
45842;SDS011;31563;51.744;8.252;2023-04-25T00:35:08;4.00;;;1.95;;
45842;SDS011;31563;51.744;8.252;2023-04-25T00:37:36;4.87;;;1.90;;
45842;SDS011;31563;51.744;8.252;2023-04-25T00:40:05;3.67;;;1.95;;
45842;SDS011;31563;51.744;8.252;2023-04-25T00:42:34;3.10;;;1.80;;
45842;SDS011;31563;51.744;8.252;2023-04-25T00:45:04;4.13;;;1.98;;
45842;SDS011;31563;51.744;8.252;2023-04-25T00:47:36;5.13;;;2.00;;
45842;SDS011;31563;51.744;8.252;2023-04-25T00:50:05;4.18;;;2.17;;
45842;SDS011;31563;51.744;8.252;2023-04-25T00:52:34;2.65;;;1.75;;
45842;SDS011;31563;51.744;8.252;2023-04-25T00:55:03;3.83;;;1.85;;
45842;SDS011;31563;51.744;8.252;2023-04-25T00:57:32;3.53;;;1.90;;
45842;SDS011;31563;51.744;8.252;2023-04-25T01:00:02;3.55;;;2.10;;
45842;SDS011;31563;51.744;8.252;2023-04-25T01:02:32;3.55;;;2.08;;
45842;SDS011;31563;51.744;8.252;2023-04-25T01:05:03;2.83;;;2.00;;
45842;SDS011;31563;51.744;8.252;2023-04-25T01:07:32;2.70;;;2.00;;
45842;SDS011;31563;51.744;8.252;2023-04-25T01:10:01;2.67;;;1.57;;
45842;SDS011;31563;51.744;8.252;2023-04-25T01:12:30;5.03;;;2.22;;
45842;SDS011;31563;51.744;8.252;2023-04-25T01:14:58;3.97;;;2.30;;
45842;SDS011;31563;51.744;8.252;2023-04-25T01:17:26;5.28;;;2.17;;
45842;SDS011;31563;51.744;8.252;2023-04-25T01:19:55;3.00;;;1.65;;
45842;SDS011;31563;51.744;8.252;2023-04-25T01:22:25;3.95;;;2.28;;
45842;SDS011;31563;51.744;8.252;2023-04-25T01:24:53;3.22;;;2.20;;
45842;SDS011;31563;51.744;8.252;2023-04-25T01:27:21;5.22;;;1.83;;
45842;SDS011;31563;51.744;8.252;2023-04-25T01:29:50;2.58;;;1.60;;
45842;SDS011;31563;51.744;8.252;2023-04-25T01:32:19;4.00;;;1.90;;
45842;SDS011;31563;51.744;8.252;2023-04-25T01:34:48;3.45;;;2.10;;
45842;SDS011;31563;51.744;8.252;2023-04-25T01:37:16;4.10;;;1.75;;
45842;SDS011;31563;51.744;8.252;2023-04-25T01:39:46;3.53;;;2.20;;
45842;SDS011;31563;51.744;8.252;2023-04-25T01:44:43;3.22;;;2.00;;
45842;SDS011;31563;51.744;8.252;2023-04-25T01:47:11;2.78;;;2.20;;
45842;SDS011;31563;51.744;8.252;2023-04-25T01:49:39;2.83;;;1.60;;
45842;SDS011;31563;51.744;8.252;2023-04-25T01:52:07;3.22;;;2.13;;
45842;SDS011;31563;51.744;8.252;2023-04-25T01:54:35;3.60;;;2.00;;
45842;SDS011;31563;51.744;8.252;2023-04-25T01:57:05;3.78;;;2.15;;
45842;SDS011;31563;51.744;8.252;2023-04-25T01:59:33;3.05;;;1.73;;
45842;SDS011;31563;51.744;8.252;2023-04-25T02:02:01;2.53;;;1.85;;
45842;SDS011;31563;51.744;8.252;2023-04-25T02:04:30;4.22;;;2.05;;
45842;SDS011;31563;51.744;8.252;2023-04-25T02:06:58;3.78;;;1.85;;
45842;SDS011;31563;51.744;8.252;2023-04-25T02:09:27;3.92;;;1.60;;
45842;SDS011;31563;51.744;8.252;2023-04-25T02:11:55;2.58;;;1.60;;
45842;SDS011;31563;51.744;8.252;2023-04-25T02:14:24;3.08;;;1.75;;
45842;SDS011;31563;51.744;8.252;2023-04-25T02:16:53;3.42;;;1.50;;
45842;SDS011;31563;51.744;8.252;2023-04-25T02:19:21;3.42;;;1.92;;
45842;SDS011;31563;51.744;8.252;2023-04-25T02:21:49;3.47;;;1.80;;
45842;SDS011;31563;51.744;8.252;2023-04-25T02:24:17;3.90;;;1.83;;
45842;SDS011;31563;51.744;8.252;2023-04-25T02:26:45;2.30;;;1.42;;
45842;SDS011;31563;51.744;8.252;2023-04-25T02:29:15;3.25;;;1.65;;
45842;SDS011;31563;51.744;8.252;2023-04-25T02:31:45;2.88;;;1.95;;
45842;SDS011;31563;51.744;8.252;2023-04-25T02:34:13;2.47;;;1.60;;
45842;SDS011;31563;51.744;8.252;2023-04-25T02:36:41;2.88;;;1.65;;
45842;SDS011;31563;51.744;8.252;2023-04-25T02:39:09;3.38;;;1.60;;
45842;SDS011;31563;51.744;8.252;2023-04-25T02:41:38;3.63;;;1.55;;
45842;SDS011;31563;51.744;8.252;2023-04-25T02:44:06;2.70;;;1.38;;
45842;SDS011;31563;51.744;8.252;2023-04-25T02:46:34;2.33;;;1.52;;
45842;SDS011;31563;51.744;8.252;2023-04-25T02:49:06;2.70;;;1.85;;
45842;SDS011;31563;51.744;8.252;2023-04-25T02:51:34;2.72;;;1.70;;
45842;SDS011;31563;51.744;8.252;2023-04-25T02:54:03;2.65;;;1.50;;
45842;SDS011;31563;51.744;8.252;2023-04-25T02:56:32;2.53;;;1.52;;
45842;SDS011;31563;51.744;8.252;2023-04-25T02:59:00;3.22;;;1.40;;
45842;SDS011;31563;51.744;8.252;2023-04-25T03:01:29;2.92;;;1.73;;
45842;SDS011;31563;51.744;8.252;2023-04-25T03:03:57;2.28;;;1.60;;
45842;SDS011;31563;51.744;8.252;2023-04-25T03:06:26;2.45;;;1.58;;
45842;SDS011;31563;51.744;8.252;2023-04-25T03:08:55;4.45;;;2.20;;
45842;SDS011;31563;51.744;8.252;2023-04-25T03:11:24;2.85;;;1.50;;
45842;SDS011;31563;51.744;8.252;2023-04-25T03:16:21;1.70;;;1.33;;
45842;SDS011;31563;51.744;8.252;2023-04-25T03:18:49;2.75;;;1.55;;
45842;SDS011;31563;51.744;8.252;2023-04-25T03:21:17;1.92;;;1.38;;
45842;SDS011;31563;51.744;8.252;2023-04-25T03:23:47;2.13;;;1.40;;
45842;SDS011;31563;51.744;8.252;2023-04-25T03:26:15;2.38;;;1.13;;
45842;SDS011;31563;51.744;8.252;2023-04-25T03:28:43;2.40;;;1.65;;
45842;SDS011;31563;51.744;8.252;2023-04-25T03:31:11;2.55;;;1.30;;
45842;SDS011;31563;51.744;8.252;2023-04-25T03:33:40;2.15;;;1.42;;
45842;SDS011;31563;51.744;8.252;2023-04-25T03:36:08;2.58;;;1.35;;
45842;SDS011;31563;51.744;8.252;2023-04-25T03:38:36;2.53;;;1.60;;
45842;SDS011;31563;51.744;8.252;2023-04-25T03:41:06;2.00;;;1.35;;
45842;SDS011;31563;51.744;8.252;2023-04-25T03:43:35;1.73;;;1.23;;
45842;SDS011;31563;51.744;8.252;2023-04-25T03:46:03;1.88;;;1.38;;
45842;SDS011;31563;51.744;8.252;2023-04-25T03:48:31;2.85;;;1.55;;
45842;SDS011;31563;51.744;8.252;2023-04-25T03:51:00;2.38;;;1.40;;
45842;SDS011;31563;51.744;8.252;2023-04-25T03:53:29;1.88;;;1.20;;
45842;SDS011;31563;51.744;8.252;2023-04-25T03:55:57;4.00;;;1.75;;
45842;SDS011;31563;51.744;8.252;2023-04-25T03:58:26;2.13;;;1.42;;
45842;SDS011;31563;51.744;8.252;2023-04-25T04:00:54;2.42;;;1.30;;
45842;SDS011;31563;51.744;8.252;2023-04-25T04:03:22;2.67;;;1.65;;
45842;SDS011;31563;51.744;8.252;2023-04-25T04:05:51;2.63;;;1.40;;
45842;SDS011;31563;51.744;8.252;2023-04-25T04:08:19;2.05;;;1.30;;
45842;SDS011;31563;51.744;8.252;2023-04-25T04:10:47;1.98;;;1.35;;
45842;SDS011;31563;51.744;8.252;2023-04-25T04:13:16;1.95;;;1.30;;
45842;SDS011;31563;51.744;8.252;2023-04-25T04:15:45;2.20;;;1.35;;
45842;SDS011;31563;51.744;8.252;2023-04-25T04:18:13;2.90;;;1.50;;
45842;SDS011;31563;51.744;8.252;2023-04-25T04:20:41;2.13;;;1.20;;
45842;SDS011;31563;51.744;8.252;2023-04-25T04:23:09;1.73;;;1.27;;
45842;SDS011;31563;51.744;8.252;2023-04-25T04:25:39;2.50;;;1.23;;
45842;SDS011;31563;51.744;8.252;2023-04-25T04:28:08;2.05;;;1.20;;
45842;SDS011;31563;51.744;8.252;2023-04-25T04:30:37;3.07;;;1.60;;
45842;SDS011;31563;51.744;8.252;2023-04-25T04:33:06;3.20;;;1.70;;
45842;SDS011;31563;51.744;8.252;2023-04-25T04:35:35;2.58;;;1.27;;
45842;SDS011;31563;51.744;8.252;2023-04-25T04:38:03;1.85;;;1.23;;
45842;SDS011;31563;51.744;8.252;2023-04-25T04:40:31;2.20;;;1.20;;
45842;SDS011;31563;51.744;8.252;2023-04-25T04:42:59;2.65;;;1.20;;
45842;SDS011;31563;51.744;8.252;2023-04-25T04:45:28;3.05;;;1.38;;
45842;SDS011;31563;51.744;8.252;2023-04-25T04:47:56;2.10;;;1.15;;
45842;SDS011;31563;51.744;8.252;2023-04-25T04:50:26;2.03;;;1.13;;
45842;SDS011;31563;51.744;8.252;2023-04-25T04:52:54;2.28;;;1.08;;
45842;SDS011;31563;51.744;8.252;2023-04-25T04:55:22;2.08;;;1.02;;
45842;SDS011;31563;51.744;8.252;2023-04-25T04:57:51;2.40;;;1.20;;
45842;SDS011;31563;51.744;8.252;2023-04-25T05:00:19;2.00;;;1.17;;
45842;SDS011;31563;51.744;8.252;2023-04-25T05:02:48;3.38;;;1.17;;
45842;SDS011;31563;51.744;8.252;2023-04-25T05:05:16;8.80;;;2.70;;
45842;SDS011;31563;51.744;8.252;2023-04-25T05:07:46;8.07;;;2.92;;
45842;SDS011;31563;51.744;8.252;2023-04-25T05:10:14;9.27;;;3.50;;
45842;SDS011;31563;51.744;8.252;2023-04-25T05:12:42;10.30;;;3.20;;
45842;SDS011;31563;51.744;8.252;2023-04-25T05:15:10;10.70;;;3.30;;
45842;SDS011;31563;51.744;8.252;2023-04-25T05:17:39;11.10;;;3.03;;
45842;SDS011;31563;51.744;8.252;2023-04-25T05:20:07;12.00;;;3.70;;
45842;SDS011;31563;51.744;8.252;2023-04-25T05:22:36;9.20;;;3.33;;
45842;SDS011;31563;51.744;8.252;2023-04-25T05:25:06;9.52;;;3.47;;
45842;SDS011;31563;51.744;8.252;2023-04-25T05:27:34;7.63;;;3.20;;
45842;SDS011;31563;51.744;8.252;2023-04-25T05:30:03;10.57;;;3.17;;
45842;SDS011;31563;51.744;8.252;2023-04-25T05:32:32;10.48;;;3.30;;
45842;SDS011;31563;51.744;8.252;2023-04-25T05:35:00;7.88;;;3.08;;
45842;SDS011;31563;51.744;8.252;2023-04-25T05:37:29;11.52;;;3.40;;
45842;SDS011;31563;51.744;8.252;2023-04-25T05:39:59;12.65;;;3.58;;
45842;SDS011;31563;51.744;8.252;2023-04-25T05:42:28;10.38;;;3.38;;
45842;SDS011;31563;51.744;8.252;2023-04-25T05:44:56;6.53;;;2.95;;
45842;SDS011;31563;51.744;8.252;2023-04-25T05:47:24;7.68;;;2.55;;
45842;SDS011;31563;51.744;8.252;2023-04-25T05:49:53;9.45;;;3.42;;
45842;SDS011;31563;51.744;8.252;2023-04-25T05:52:21;9.15;;;3.20;;
45842;SDS011;31563;51.744;8.252;2023-04-25T05:54:49;8.95;;;3.10;;
45842;SDS011;31563;51.744;8.252;2023-04-25T05:57:21;9.90;;;3.50;;
45842;SDS011;31563;51.744;8.252;2023-04-25T05:59:52;9.07;;;3.45;;
45842;SDS011;31563;51.744;8.252;2023-04-25T06:04:49;5.88;;;2.95;;
45842;SDS011;31563;51.744;8.252;2023-04-25T06:07:18;6.67;;;2.63;;
45842;SDS011;31563;51.744;8.252;2023-04-25T06:09:47;7.40;;;3.25;;
45842;SDS011;31563;51.744;8.252;2023-04-25T06:12:15;7.85;;;2.70;;
45842;SDS011;31563;51.744;8.252;2023-04-25T06:14:43;7.53;;;2.90;;
45842;SDS011;31563;51.744;8.252;2023-04-25T06:17:13;5.95;;;2.70;;
45842;SDS011;31563;51.744;8.252;2023-04-25T06:19:41;6.82;;;3.33;;
45842;SDS011;31563;51.744;8.252;2023-04-25T06:22:09;7.00;;;2.95;;
45842;SDS011;31563;51.744;8.252;2023-04-25T06:24:37;8.13;;;2.40;;
45842;SDS011;31563;51.744;8.252;2023-04-25T06:27:06;7.15;;;2.65;;
45842;SDS011;31563;51.744;8.252;2023-04-25T06:29:34;5.15;;;2.35;;
45842;SDS011;31563;51.744;8.252;2023-04-25T06:32:02;4.95;;;2.20;;
45842;SDS011;31563;51.744;8.252;2023-04-25T06:34:32;9.05;;;2.63;;
45842;SDS011;31563;51.744;8.252;2023-04-25T06:37:00;9.45;;;3.22;;
45842;SDS011;31563;51.744;8.252;2023-04-25T06:39:28;9.55;;;3.28;;
45842;SDS011;31563;51.744;8.252;2023-04-25T06:41:56;10.30;;;3.42;;
45842;SDS011;31563;51.744;8.252;2023-04-25T06:44:25;11.15;;;3.10;;
45842;SDS011;31563;51.744;8.252;2023-04-25T06:46:55;11.75;;;3.88;;
45842;SDS011;31563;51.744;8.252;2023-04-25T06:49:23;12.18;;;3.60;;
45842;SDS011;31563;51.744;8.252;2023-04-25T06:51:53;9.93;;;3.08;;
45842;SDS011;31563;51.744;8.252;2023-04-25T06:54:21;11.35;;;4.10;;
45842;SDS011;31563;51.744;8.252;2023-04-25T06:56:51;13.55;;;4.03;;
45842;SDS011;31563;51.744;8.252;2023-04-25T06:59:19;17.13;;;4.15;;
45842;SDS011;31563;51.744;8.252;2023-04-25T07:01:47;11.60;;;4.03;;
45842;SDS011;31563;51.744;8.252;2023-04-25T07:04:15;13.07;;;5.20;;
45842;SDS011;31563;51.744;8.252;2023-04-25T07:06:44;14.20;;;5.18;;
45842;SDS011;31563;51.744;8.252;2023-04-25T07:09:15;17.10;;;4.55;;
45842;SDS011;31563;51.744;8.252;2023-04-25T07:11:43;9.60;;;3.50;;
45842;SDS011;31563;51.744;8.252;2023-04-25T07:14:11;7.55;;;2.70;;
45842;SDS011;31563;51.744;8.252;2023-04-25T07:16:39;11.43;;;3.40;;
45842;SDS011;31563;51.744;8.252;2023-04-25T07:19:08;10.73;;;3.42;;
45842;SDS011;31563;51.744;8.252;2023-04-25T07:21:36;10.65;;;3.45;;
45842;SDS011;31563;51.744;8.252;2023-04-25T07:24:04;10.88;;;3.00;;
45842;SDS011;31563;51.744;8.252;2023-04-25T07:26:34;7.38;;;2.95;;
45842;SDS011;31563;51.744;8.252;2023-04-25T07:29:03;8.70;;;3.45;;
45842;SDS011;31563;51.744;8.252;2023-04-25T07:31:32;9.68;;;2.83;;
45842;SDS011;31563;51.744;8.252;2023-04-25T07:34:01;11.10;;;2.80;;
45842;SDS011;31563;51.744;8.252;2023-04-25T07:36:29;8.35;;;3.05;;
45842;SDS011;31563;51.744;8.252;2023-04-25T07:38:57;8.77;;;2.72;;
45842;SDS011;31563;51.744;8.252;2023-04-25T07:41:25;9.45;;;3.28;;
45842;SDS011;31563;51.744;8.252;2023-04-25T07:43:55;10.93;;;3.33;;
45842;SDS011;31563;51.744;8.252;2023-04-25T07:46:23;8.63;;;3.00;;
45842;SDS011;31563;51.744;8.252;2023-04-25T07:48:51;11.25;;;2.92;;
45842;SDS011;31563;51.744;8.252;2023-04-25T07:51:19;6.32;;;2.50;;
45842;SDS011;31563;51.744;8.252;2023-04-25T07:53:48;8.80;;;2.90;;
45842;SDS011;31563;51.744;8.252;2023-04-25T07:56:16;6.47;;;2.63;;
45842;SDS011;31563;51.744;8.252;2023-04-25T07:58:45;6.82;;;2.50;;
45842;SDS011;31563;51.744;8.252;2023-04-25T08:01:14;5.05;;;2.30;;
45842;SDS011;31563;51.744;8.252;2023-04-25T08:03:42;7.80;;;3.63;;
45842;SDS011;31563;51.744;8.252;2023-04-25T08:06:11;8.13;;;3.00;;
45842;SDS011;31563;51.744;8.252;2023-04-25T08:08:40;7.07;;;2.75;;
45842;SDS011;31563;51.744;8.252;2023-04-25T08:11:08;8.23;;;2.85;;
45842;SDS011;31563;51.744;8.252;2023-04-25T08:13:37;5.90;;;2.70;;
45842;SDS011;31563;51.744;8.252;2023-04-25T08:16:05;6.60;;;2.80;;
45842;SDS011;31563;51.744;8.252;2023-04-25T08:18:34;5.57;;;2.30;;
45842;SDS011;31563;51.744;8.252;2023-04-25T08:21:02;6.88;;;2.35;;
45842;SDS011;31563;51.744;8.252;2023-04-25T08:23:31;5.70;;;2.50;;
45842;SDS011;31563;51.744;8.252;2023-04-25T08:25:59;5.78;;;2.55;;
45842;SDS011;31563;51.744;8.252;2023-04-25T08:28:27;5.50;;;2.10;;
45842;SDS011;31563;51.744;8.252;2023-04-25T08:30:55;5.32;;;2.58;;
45842;SDS011;31563;51.744;8.252;2023-04-25T08:33:24;7.03;;;2.30;;
45842;SDS011;31563;51.744;8.252;2023-04-25T08:35:54;6.25;;;2.58;;
45842;SDS011;31563;51.744;8.252;2023-04-25T08:38:22;4.57;;;2.50;;
45842;SDS011;31563;51.744;8.252;2023-04-25T08:40:50;7.85;;;2.92;;
45842;SDS011;31563;51.744;8.252;2023-04-25T08:43:19;7.07;;;2.20;;
45842;SDS011;31563;51.744;8.252;2023-04-25T08:45:47;5.60;;;2.75;;
45842;SDS011;31563;51.744;8.252;2023-04-25T08:48:16;6.15;;;2.80;;
45842;SDS011;31563;51.744;8.252;2023-04-25T08:53:20;5.47;;;2.60;;
45842;SDS011;31563;51.744;8.252;2023-04-25T08:55:54;5.55;;;2.38;;
45842;SDS011;31563;51.744;8.252;2023-04-25T08:58:23;5.53;;;2.20;;
45842;SDS011;31563;51.744;8.252;2023-04-25T09:00:51;7.10;;;2.60;;
45842;SDS011;31563;51.744;8.252;2023-04-25T09:03:20;5.28;;;2.28;;
45842;SDS011;31563;51.744;8.252;2023-04-25T09:05:48;5.05;;;2.13;;
45842;SDS011;31563;51.744;8.252;2023-04-25T09:08:17;6.63;;;2.35;;
45842;SDS011;31563;51.744;8.252;2023-04-25T09:10:47;5.45;;;2.40;;
45842;SDS011;31563;51.744;8.252;2023-04-25T09:13:20;4.50;;;2.03;;
45842;SDS011;31563;51.744;8.252;2023-04-25T09:15:53;5.05;;;2.17;;
45842;SDS011;31563;51.744;8.252;2023-04-25T09:18:22;7.32;;;2.10;;
45842;SDS011;31563;51.744;8.252;2023-04-25T09:20:56;4.60;;;2.15;;
45842;SDS011;31563;51.744;8.252;2023-04-25T09:23:38;5.45;;;2.30;;
45842;SDS011;31563;51.744;8.252;2023-04-25T09:26:09;5.05;;;2.25;;
45842;SDS011;31563;51.744;8.252;2023-04-25T09:28:37;4.18;;;2.05;;
45842;SDS011;31563;51.744;8.252;2023-04-25T09:31:05;4.65;;;2.10;;
45842;SDS011;31563;51.744;8.252;2023-04-25T09:33:33;5.40;;;2.10;;
45842;SDS011;31563;51.744;8.252;2023-04-25T09:36:03;4.95;;;2.63;;
45842;SDS011;31563;51.744;8.252;2023-04-25T09:38:32;5.63;;;2.35;;
45842;SDS011;31563;51.744;8.252;2023-04-25T09:41:09;6.93;;;2.78;;
45842;SDS011;31563;51.744;8.252;2023-04-25T09:43:38;7.20;;;2.35;;
45842;SDS011;31563;51.744;8.252;2023-04-25T09:46:07;8.40;;;2.78;;
45842;SDS011;31563;51.744;8.252;2023-04-25T09:48:37;7.18;;;2.67;;
45842;SDS011;31563;51.744;8.252;2023-04-25T09:51:07;7.03;;;1.70;;
45842;SDS011;31563;51.744;8.252;2023-04-25T09:53:37;6.40;;;2.42;;
45842;SDS011;31563;51.744;8.252;2023-04-25T09:56:07;6.45;;;2.45;;
45842;SDS011;31563;51.744;8.252;2023-04-25T09:58:38;4.78;;;1.58;;
45842;SDS011;31563;51.744;8.252;2023-04-25T10:01:09;6.78;;;2.08;;
45842;SDS011;31563;51.744;8.252;2023-04-25T10:03:38;5.68;;;2.08;;
45842;SDS011;31563;51.744;8.252;2023-04-25T10:06:08;4.50;;;1.90;;
45842;SDS011;31563;51.744;8.252;2023-04-25T10:08:40;4.63;;;1.92;;
45842;SDS011;31563;51.744;8.252;2023-04-25T10:11:10;7.72;;;2.08;;
45842;SDS011;31563;51.744;8.252;2023-04-25T10:13:40;3.83;;;1.45;;
45842;SDS011;31563;51.744;8.252;2023-04-25T10:16:10;4.25;;;1.40;;
45842;SDS011;31563;51.744;8.252;2023-04-25T10:18:38;6.00;;;1.42;;
45842;SDS011;31563;51.744;8.252;2023-04-25T10:21:06;3.30;;;0.75;;
45842;SDS011;31563;51.744;8.252;2023-04-25T10:23:35;1.92;;;0.70;;
45842;SDS011;31563;51.744;8.252;2023-04-25T10:26:04;3.15;;;0.85;;
45842;SDS011;31563;51.744;8.252;2023-04-25T10:31:24;4.22;;;0.73;;
45842;SDS011;31563;51.744;8.252;2023-04-25T10:33:53;1.67;;;0.52;;
45842;SDS011;31563;51.744;8.252;2023-04-25T10:36:22;2.08;;;0.38;;
45842;SDS011;31563;51.744;8.252;2023-04-25T10:38:53;2.20;;;0.45;;
45842;SDS011;31563;51.744;8.252;2023-04-25T10:41:21;1.05;;;0.40;;
45842;SDS011;31563;51.744;8.252;2023-04-25T10:43:50;2.83;;;0.57;;
45842;SDS011;31563;51.744;8.252;2023-04-25T10:46:28;2.00;;;0.55;;
45842;SDS011;31563;51.744;8.252;2023-04-25T10:48:58;1.85;;;0.60;;
45842;SDS011;31563;51.744;8.252;2023-04-25T10:51:27;1.88;;;0.52;;
45842;SDS011;31563;51.744;8.252;2023-04-25T10:54:16;2.22;;;0.77;;
45842;SDS011;31563;51.744;8.252;2023-04-25T10:56:48;2.30;;;0.65;;
45842;SDS011;31563;51.744;8.252;2023-04-25T10:59:18;1.30;;;0.60;;
45842;SDS011;31563;51.744;8.252;2023-04-25T11:01:48;1.60;;;0.55;;
45842;SDS011;31563;51.744;8.252;2023-04-25T11:04:21;1.83;;;0.40;;
45842;SDS011;31563;51.744;8.252;2023-04-25T11:06:55;1.85;;;0.30;;
45842;SDS011;31563;51.744;8.252;2023-04-25T11:09:49;1.40;;;0.40;;
45842;SDS011;31563;51.744;8.252;2023-04-25T11:12:18;1.20;;;0.40;;
45842;SDS011;31563;51.744;8.252;2023-04-25T11:14:48;6.93;;;0.65;;
45842;SDS011;31563;51.744;8.252;2023-04-25T11:17:16;2.47;;;0.45;;
45842;SDS011;31563;51.744;8.252;2023-04-25T11:19:44;1.40;;;0.25;;
45842;SDS011;31563;51.744;8.252;2023-04-25T11:22:16;2.25;;;0.40;;
45842;SDS011;31563;51.744;8.252;2023-04-25T11:24:44;1.70;;;0.50;;
45842;SDS011;31563;51.744;8.252;2023-04-25T11:27:13;2.08;;;0.30;;
45842;SDS011;31563;51.744;8.252;2023-04-25T11:29:41;0.60;;;0.30;;
45842;SDS011;31563;51.744;8.252;2023-04-25T11:32:11;1.15;;;0.45;;
45842;SDS011;31563;51.744;8.252;2023-04-25T11:37:10;1.65;;;0.52;;
45842;SDS011;31563;51.744;8.252;2023-04-25T11:39:42;1.55;;;0.35;;
45842;SDS011;31563;51.744;8.252;2023-04-25T11:42:12;3.40;;;0.60;;
45842;SDS011;31563;51.744;8.252;2023-04-25T11:44:40;1.83;;;0.50;;
45842;SDS011;31563;51.744;8.252;2023-04-25T11:47:09;1.35;;;0.52;;
45842;SDS011;31563;51.744;8.252;2023-04-25T11:52:06;1.75;;;0.60;;
45842;SDS011;31563;51.744;8.252;2023-04-25T11:54:35;2.95;;;0.40;;
45842;SDS011;31563;51.744;8.252;2023-04-25T11:57:04;1.90;;;0.55;;
45842;SDS011;31563;51.744;8.252;2023-04-25T11:59:32;2.40;;;0.50;;
45842;SDS011;31563;51.744;8.252;2023-04-25T12:02:01;1.38;;;0.50;;
45842;SDS011;31563;51.744;8.252;2023-04-25T12:04:30;3.78;;;0.80;;
45842;SDS011;31563;51.744;8.252;2023-04-25T12:07:00;2.42;;;0.60;;
45842;SDS011;31563;51.744;8.252;2023-04-25T12:09:29;4.60;;;0.70;;
45842;SDS011;31563;51.744;8.252;2023-04-25T12:14:29;2.08;;;0.60;;
45842;SDS011;31563;51.744;8.252;2023-04-25T12:17:00;1.55;;;0.47;;
45842;SDS011;31563;51.744;8.252;2023-04-25T12:19:34;2.10;;;0.50;;
45842;SDS011;31563;51.744;8.252;2023-04-25T12:22:18;1.55;;;0.50;;
45842;SDS011;31563;51.744;8.252;2023-04-25T12:24:47;3.13;;;0.45;;
45842;SDS011;31563;51.744;8.252;2023-04-25T12:27:16;1.83;;;0.40;;
45842;SDS011;31563;51.744;8.252;2023-04-25T12:29:50;2.55;;;0.50;;
45842;SDS011;31563;51.744;8.252;2023-04-25T12:32:19;3.20;;;0.60;;
45842;SDS011;31563;51.744;8.252;2023-04-25T12:34:48;1.48;;;0.40;;
45842;SDS011;31563;51.744;8.252;2023-04-25T12:39:45;3.08;;;0.40;;
45842;SDS011;31563;51.744;8.252;2023-04-25T12:42:13;5.60;;;0.68;;
45842;SDS011;31563;51.744;8.252;2023-04-25T12:44:41;3.20;;;0.70;;
45842;SDS011;31563;51.744;8.252;2023-04-25T12:47:09;1.88;;;0.68;;
45842;SDS011;31563;51.744;8.252;2023-04-25T12:49:38;3.60;;;0.60;;
45842;SDS011;31563;51.744;8.252;2023-04-25T12:52:07;2.28;;;0.50;;
45842;SDS011;31563;51.744;8.252;2023-04-25T12:54:36;1.60;;;0.45;;
45842;SDS011;31563;51.744;8.252;2023-04-25T12:57:05;5.27;;;0.70;;
45842;SDS011;31563;51.744;8.252;2023-04-25T12:59:33;2.45;;;0.55;;
45842;SDS011;31563;51.744;8.252;2023-04-25T13:02:01;4.80;;;1.08;;
45842;SDS011;31563;51.744;8.252;2023-04-25T13:04:29;4.63;;;1.08;;
45842;SDS011;31563;51.744;8.252;2023-04-25T13:06:58;3.20;;;0.68;;
45842;SDS011;31563;51.744;8.252;2023-04-25T13:09:27;4.53;;;0.65;;
45842;SDS011;31563;51.744;8.252;2023-04-25T13:14:24;3.20;;;0.70;;
45842;SDS011;31563;51.744;8.252;2023-04-25T13:16:52;2.15;;;0.63;;
45842;SDS011;31563;51.744;8.252;2023-04-25T13:19:21;2.10;;;0.50;;
45842;SDS011;31563;51.744;8.252;2023-04-25T13:21:49;1.88;;;0.50;;
45842;SDS011;31563;51.744;8.252;2023-04-25T13:24:17;2.33;;;0.73;;
45842;SDS011;31563;51.744;8.252;2023-04-25T13:26:47;5.38;;;0.80;;
45842;SDS011;31563;51.744;8.252;2023-04-25T13:31:43;2.40;;;0.40;;
45842;SDS011;31563;51.744;8.252;2023-04-25T13:34:11;3.60;;;0.88;;
45842;SDS011;31563;51.744;8.252;2023-04-25T13:36:39;5.22;;;0.93;;
45842;SDS011;31563;51.744;8.252;2023-04-25T13:39:07;1.48;;;0.60;;
45842;SDS011;31563;51.744;8.252;2023-04-25T13:41:35;2.15;;;0.40;;
45842;SDS011;31563;51.744;8.252;2023-04-25T13:44:05;2.85;;;0.60;;
45842;SDS011;31563;51.744;8.252;2023-04-25T13:46:33;3.83;;;0.70;;
45842;SDS011;31563;51.744;8.252;2023-04-25T13:49:06;1.98;;;0.50;;
45842;SDS011;31563;51.744;8.252;2023-04-25T13:51:38;3.22;;;0.40;;
45842;SDS011;31563;51.744;8.252;2023-04-25T13:54:08;1.42;;;0.52;;
45842;SDS011;31563;51.744;8.252;2023-04-25T13:56:36;2.33;;;0.40;;
45842;SDS011;31563;51.744;8.252;2023-04-25T13:59:06;2.00;;;0.45;;
45842;SDS011;31563;51.744;8.252;2023-04-25T14:01:35;2.22;;;0.50;;
45842;SDS011;31563;51.744;8.252;2023-04-25T14:04:03;2.78;;;0.55;;
45842;SDS011;31563;51.744;8.252;2023-04-25T14:06:31;1.83;;;0.50;;
45842;SDS011;31563;51.744;8.252;2023-04-25T14:08:59;3.35;;;0.55;;
45842;SDS011;31563;51.744;8.252;2023-04-25T14:11:28;1.33;;;0.50;;
45842;SDS011;31563;51.744;8.252;2023-04-25T14:13:56;3.10;;;0.57;;
45842;SDS011;31563;51.744;8.252;2023-04-25T14:16:25;3.67;;;0.40;;
45842;SDS011;31563;51.744;8.252;2023-04-25T14:18:54;1.92;;;0.60;;
45842;SDS011;31563;51.744;8.252;2023-04-25T14:21:22;3.05;;;0.70;;
45842;SDS011;31563;51.744;8.252;2023-04-25T14:23:50;2.58;;;0.57;;
45842;SDS011;31563;51.744;8.252;2023-04-25T14:26:19;3.60;;;0.60;;
45842;SDS011;31563;51.744;8.252;2023-04-25T14:28:47;1.83;;;0.40;;
45842;SDS011;31563;51.744;8.252;2023-04-25T14:31:15;3.25;;;0.60;;
45842;SDS011;31563;51.744;8.252;2023-04-25T14:33:45;3.47;;;0.65;;
45842;SDS011;31563;51.744;8.252;2023-04-25T14:36:13;1.27;;;0.47;;
45842;SDS011;31563;51.744;8.252;2023-04-25T14:38:41;3.33;;;0.70;;
45842;SDS011;31563;51.744;8.252;2023-04-25T14:41:10;4.53;;;0.80;;
45842;SDS011;31563;51.744;8.252;2023-04-25T14:43:38;2.58;;;0.50;;
45842;SDS011;31563;51.744;8.252;2023-04-25T14:46:08;1.15;;;0.35;;
45842;SDS011;31563;51.744;8.252;2023-04-25T14:48:37;3.28;;;0.50;;
45842;SDS011;31563;51.744;8.252;2023-04-25T14:51:07;3.47;;;0.75;;
45842;SDS011;31563;51.744;8.252;2023-04-25T14:56:04;2.05;;;0.60;;
45842;SDS011;31563;51.744;8.252;2023-04-25T15:01:01;2.15;;;0.55;;
45842;SDS011;31563;51.744;8.252;2023-04-25T15:03:29;4.03;;;0.63;;
45842;SDS011;31563;51.744;8.252;2023-04-25T15:05:58;1.37;;;0.40;;
45842;SDS011;31563;51.744;8.252;2023-04-25T15:08:28;2.65;;;0.40;;
45842;SDS011;31563;51.744;8.252;2023-04-25T15:13:24;1.40;;;0.47;;
45842;SDS011;31563;51.744;8.252;2023-04-25T15:15:54;1.58;;;0.50;;
45842;SDS011;31563;51.744;8.252;2023-04-25T15:18:22;0.80;;;0.30;;
45842;SDS011;31563;51.744;8.252;2023-04-25T15:20:51;2.00;;;0.60;;
45842;SDS011;31563;51.744;8.252;2023-04-25T15:23:20;3.13;;;0.68;;
45842;SDS011;31563;51.744;8.252;2023-04-25T15:25:50;1.10;;;0.50;;
45842;SDS011;31563;51.744;8.252;2023-04-25T15:28:19;2.55;;;0.38;;
45842;SDS011;31563;51.744;8.252;2023-04-25T15:30:48;8.10;;;1.25;;